createdAt,value
2019-05-18T19:00:20.709Z,8.83
2019-05-18T19:05:29.345Z,7.88
2019-05-18T19:10:37.888Z,7.65
2019-05-18T19:15:46.526Z,8.15
2019-05-18T19:20:55.083Z,7.30
2019-05-18T19:26:03.719Z,7.23
2019-05-18T19:31:12.280Z,7.64
2019-05-18T19:36:20.901Z,8.07
2019-05-18T19:41:29.476Z,8.25
2019-05-18T19:46:38.077Z,8.20
2019-05-18T19:51:46.657Z,8.41
2019-05-18T19:56:55.310Z,8.36
2019-05-18T20:02:03.877Z,8.70
2019-05-18T20:07:12.489Z,9.22
2019-05-18T20:12:21.073Z,9.37
2019-05-18T20:17:29.699Z,8.93
2019-05-18T20:22:38.265Z,8.90
2019-05-18T20:27:46.901Z,9.16
2019-05-18T20:32:55.442Z,10.61
2019-05-18T20:38:04.064Z,9.86
2019-05-18T20:43:12.617Z,9.90
2019-05-18T20:48:21.225Z,10.97
2019-05-18T20:53:29.786Z,10.15
2019-05-18T20:58:40.290Z,10.54
2019-05-18T21:03:46.536Z,9.75
2019-05-18T21:08:55.146Z,10.11
2019-05-18T21:14:03.716Z,9.49
2019-05-18T21:19:12.337Z,10.04
2019-05-18T21:24:20.908Z,10.01
2019-05-18T21:29:29.553Z,10.03
2019-05-18T21:34:38.132Z,10.73
2019-05-18T21:39:46.733Z,10.89
2019-05-18T21:44:55.288Z,10.26
2019-05-18T21:50:03.901Z,10.00
2019-05-18T21:55:12.469Z,10.66
2019-05-18T22:00:21.089Z,11.08
2019-05-18T22:05:29.640Z,10.54
2019-05-18T22:10:38.226Z,10.67
2019-05-18T22:15:46.757Z,12.22
2019-05-18T22:20:55.423Z,10.41
2019-05-18T22:26:04.020Z,10.85
2019-05-18T22:31:12.641Z,11.15
2019-05-18T22:36:21.248Z,9.45
2019-05-18T22:41:29.945Z,8.94
2019-05-18T22:46:38.529Z,10.27
2019-05-18T22:51:47.132Z,12.72
2019-05-18T22:56:55.768Z,10.40
2019-05-18T23:02:04.298Z,8.33
2019-05-18T23:07:12.820Z,7.06
2019-05-18T23:12:21.421Z,6.28
2019-05-18T23:17:29.987Z,5.86
2019-05-18T23:22:38.595Z,6.46
2019-05-18T23:27:47.138Z,6.30
2019-05-18T23:32:55.724Z,5.61
2019-05-18T23:38:04.317Z,5.23
2019-05-18T23:43:12.905Z,4.11
2019-05-18T23:48:21.458Z,3.19
2019-05-18T23:53:30.045Z,3.08
2019-05-18T23:58:38.686Z,3.16
